sensor_id;sensor_type;location;lat;lon;timestamp;pressure;altitude;pressure_sealevel;temperature;humidity
56831;BME280;42713;42.676;23.352;2023-04-01T00:01:45;93915.56;;;13.50;49.20
56831;BME280;42713;42.676;23.352;2023-04-01T00:04:11;93907.72;;;13.45;49.51
56831;BME280;42713;42.676;23.352;2023-04-01T00:06:36;93914.59;;;13.41;49.37
56831;BME280;42713;42.676;23.352;2023-04-01T00:09:02;93911.72;;;13.37;49.16
56831;BME280;42713;42.676;23.352;2023-04-01T00:11:27;93908.34;;;13.31;49.72
56831;BME280;42713;42.676;23.352;2023-04-01T00:13:53;93906.28;;;13.28;49.35
56831;BME280;42713;42.676;23.352;2023-04-01T00:16:18;93912.13;;;13.25;49.50
56831;BME280;42713;42.676;23.352;2023-04-01T00:18:44;93916.63;;;13.19;49.18
56831;BME280;42713;42.676;23.352;2023-04-01T00:21:12;93920.34;;;13.13;49.52
56831;BME280;42713;42.676;23.352;2023-04-01T00:23:37;93919.34;;;13.09;49.36
56831;BME280;42713;42.676;23.352;2023-04-01T00:26:03;93916.22;;;13.07;49.57
56831;BME280;42713;42.676;23.352;2023-04-01T00:28:29;93910.44;;;13.05;49.67
56831;BME280;42713;42.676;23.352;2023-04-01T00:30:54;93917.06;;;13.02;50.02
56831;BME280;42713;42.676;23.352;2023-04-01T00:33:20;93916.28;;;13.02;50.24
56831;BME280;42713;42.676;23.352;2023-04-01T00:35:46;93919.44;;;12.99;50.19
56831;BME280;42713;42.676;23.352;2023-04-01T00:38:12;93909.22;;;12.97;50.11
56831;BME280;42713;42.676;23.352;2023-04-01T00:40:43;93912.69;;;12.92;50.00
56831;BME280;42713;42.676;23.352;2023-04-01T00:43:17;93905.34;;;12.89;50.45
56831;BME280;42713;42.676;23.352;2023-04-01T00:45:46;93892.75;;;12.86;50.89
56831;BME280;42713;42.676;23.352;2023-04-01T00:48:16;93893.06;;;12.80;50.60
56831;BME280;42713;42.676;23.352;2023-04-01T00:50:46;93889.47;;;12.70;51.88
56831;BME280;42713;42.676;23.352;2023-04-01T00:53:14;93879.47;;;12.72;52.21
56831;BME280;42713;42.676;23.352;2023-04-01T00:55:46;93879.22;;;12.69;52.06
56831;BME280;42713;42.676;23.352;2023-04-01T00:58:16;93873.22;;;12.68;52.34
56831;BME280;42713;42.676;23.352;2023-04-01T01:00:42;93870.28;;;12.70;52.91
56831;BME280;42713;42.676;23.352;2023-04-01T01:03:08;93864.75;;;12.71;52.77
56831;BME280;42713;42.676;23.352;2023-04-01T01:11:08;93854.16;;;12.52;52.71
56831;BME280;42713;42.676;23.352;2023-04-01T01:13:36;93853.22;;;12.38;52.95
56831;BME280;42713;42.676;23.352;2023-04-01T01:18:56;93841.25;;;12.21;53.53
56831;BME280;42713;42.676;23.352;2023-04-01T01:35:16;93832.72;;;12.40;53.63
56831;BME280;42713;42.676;23.352;2023-04-01T01:37:46;93815.69;;;12.37;53.30
56831;BME280;42713;42.676;23.352;2023-04-01T01:40:13;93818.56;;;12.36;53.47
56831;BME280;42713;42.676;23.352;2023-04-01T01:42:45;93821.94;;;12.41;53.76
56831;BME280;42713;42.676;23.352;2023-04-01T01:45:14;93815.09;;;12.40;53.40
56831;BME280;42713;42.676;23.352;2023-04-01T01:47:43;93809.38;;;12.38;53.26
56831;BME280;42713;42.676;23.352;2023-04-01T01:50:11;93815.09;;;12.40;52.47
56831;BME280;42713;42.676;23.352;2023-04-01T01:52:37;93814.34;;;12.40;51.17
56831;BME280;42713;42.676;23.352;2023-04-01T01:55:03;93803.00;;;12.44;50.96
56831;BME280;42713;42.676;23.352;2023-04-01T01:57:31;93799.31;;;12.45;51.56
56831;BME280;42713;42.676;23.352;2023-04-01T02:00:05;93798.25;;;12.47;51.82
56831;BME280;42713;42.676;23.352;2023-04-01T02:02:43;93801.66;;;12.47;51.79
56831;BME280;42713;42.676;23.352;2023-04-01T02:05:11;93800.59;;;12.48;50.62
56831;BME280;42713;42.676;23.352;2023-04-01T02:07:43;93793.78;;;12.47;51.05
56831;BME280;42713;42.676;23.352;2023-04-01T02:10:12;93789.91;;;12.39;50.57
56831;BME280;42713;42.676;23.352;2023-04-01T02:12:39;93786.00;;;12.37;51.27
56831;BME280;42713;42.676;23.352;2023-04-01T02:15:09;93787.78;;;12.41;50.71
56831;BME280;42713;42.676;23.352;2023-04-01T02:17:40;93795.13;;;12.44;50.74
56831;BME280;42713;42.676;23.352;2023-04-01T02:20:19;93789.59;;;12.46;50.68
56831;BME280;42713;42.676;23.352;2023-04-01T02:22:56;93777.25;;;12.47;51.04
56831;BME280;42713;42.676;23.352;2023-04-01T02:25:27;93764.91;;;12.47;50.30
56831;BME280;42713;42.676;23.352;2023-04-01T02:27:55;93763.06;;;12.48;51.01
56831;BME280;42713;42.676;23.352;2023-04-01T02:30:22;93774.16;;;12.39;50.48
56831;BME280;42713;42.676;23.352;2023-04-01T02:32:48;93777.06;;;12.38;50.43
56831;BME280;42713;42.676;23.352;2023-04-01T02:35:17;93786.72;;;12.42;49.21
56831;BME280;42713;42.676;23.352;2023-04-01T02:37:44;93791.25;;;12.37;49.80
56831;BME280;42713;42.676;23.352;2023-04-01T02:40:14;93789.41;;;12.37;50.30
56831;BME280;42713;42.676;23.352;2023-04-01T02:42:40;93781.56;;;12.32;49.56
56831;BME280;42713;42.676;23.352;2023-04-01T02:45:06;93789.44;;;12.32;49.29
56831;BME280;42713;42.676;23.352;2023-04-01T02:47:31;93801.22;;;12.35;49.53
56831;BME280;42713;42.676;23.352;2023-04-01T02:49:57;93788.38;;;12.38;48.91
56831;BME280;42713;42.676;23.352;2023-04-01T02:52:28;93802.56;;;12.32;50.07
56831;BME280;42713;42.676;23.352;2023-04-01T02:54:55;93810.34;;;12.13;51.61
56831;BME280;42713;42.676;23.352;2023-04-01T02:57:21;93803.84;;;12.05;51.57
56831;BME280;42713;42.676;23.352;2023-04-01T02:59:46;93802.06;;;11.90;51.83
56831;BME280;42713;42.676;23.352;2023-04-01T03:02:12;93810.44;;;11.97;52.90
56831;BME280;42713;42.676;23.352;2023-04-01T03:04:37;93828.09;;;11.81;53.93
56831;BME280;42713;42.676;23.352;2023-04-01T03:07:03;93825.53;;;11.71;54.61
56831;BME280;42713;42.676;23.352;2023-04-01T03:09:28;93823.47;;;11.63;55.04
56831;BME280;42713;42.676;23.352;2023-04-01T03:11:54;93815.34;;;11.64;55.88
56831;BME280;42713;42.676;23.352;2023-04-01T03:14:19;93830.34;;;11.53;55.25
56831;BME280;42713;42.676;23.352;2023-04-01T03:16:45;93822.59;;;11.28;55.73
56831;BME280;42713;42.676;23.352;2023-04-01T03:19:11;93817.34;;;11.28;55.73
56831;BME280;42713;42.676;23.352;2023-04-01T03:21:36;93817.38;;;11.17;56.88
56831;BME280;42713;42.676;23.352;2023-04-01T03:24:02;93822.41;;;11.03;56.81
56831;BME280;42713;42.676;23.352;2023-04-01T03:26:27;93830.28;;;11.03;57.65
56831;BME280;42713;42.676;23.352;2023-04-01T03:28:53;93828.66;;;11.08;57.60
56831;BME280;42713;42.676;23.352;2023-04-01T03:31:19;93837.84;;;11.10;57.89
56831;BME280;42713;42.676;23.352;2023-04-01T03:33:44;93839.41;;;11.16;57.55
56831;BME280;42713;42.676;23.352;2023-04-01T03:36:10;93830.75;;;11.21;57.67
56831;BME280;42713;42.676;23.352;2023-04-01T03:38:37;93832.84;;;11.19;58.02
56831;BME280;42713;42.676;23.352;2023-04-01T03:41:03;93833.84;;;11.28;58.18
56831;BME280;42713;42.676;23.352;2023-04-01T03:43:29;93826.22;;;11.37;57.86
56831;BME280;42713;42.676;23.352;2023-04-01T03:45:55;93815.69;;;11.42;57.39
56831;BME280;42713;42.676;23.352;2023-04-01T03:48:23;93804.16;;;11.48;57.95
56831;BME280;42713;42.676;23.352;2023-04-01T03:50:48;93795.47;;;11.53;57.30
56831;BME280;42713;42.676;23.352;2023-04-01T03:53:14;93770.53;;;11.56;57.21
56831;BME280;42713;42.676;23.352;2023-04-01T03:55:40;93764.72;;;11.64;57.38
56831;BME280;42713;42.676;23.352;2023-04-01T03:58:06;93760.00;;;11.66;57.87
56831;BME280;42713;42.676;23.352;2023-04-01T04:00:32;93745.81;;;11.67;57.55
56831;BME280;42713;42.676;23.352;2023-04-01T04:02:58;93732.16;;;11.70;56.62
56831;BME280;42713;42.676;23.352;2023-04-01T04:05:25;93718.78;;;11.66;57.23
56831;BME280;42713;42.676;23.352;2023-04-01T04:07:52;93725.06;;;11.71;56.85
56831;BME280;42713;42.676;23.352;2023-04-01T04:10:18;93727.69;;;11.71;57.11
56831;BME280;42713;42.676;23.352;2023-04-01T04:12:44;93712.72;;;11.71;57.17
56831;BME280;42713;42.676;23.352;2023-04-01T04:15:10;93700.13;;;11.73;56.32
56831;BME280;42713;42.676;23.352;2023-04-01T04:17:35;93708.00;;;11.73;56.19
56831;BME280;42713;42.676;23.352;2023-04-01T04:20:01;93706.72;;;11.71;56.02
56831;BME280;42713;42.676;23.352;2023-04-01T04:22:27;93699.34;;;11.73;55.94
56831;BME280;42713;42.676;23.352;2023-04-01T04:24:52;93694.38;;;11.71;55.76
56831;BME280;42713;42.676;23.352;2023-04-01T04:27:18;93695.41;;;11.75;55.53
56831;BME280;42713;42.676;23.352;2023-04-01T04:29:43;93692.78;;;11.75;55.90
56831;BME280;42713;42.676;23.352;2023-04-01T04:32:09;93674.69;;;11.74;54.86
56831;BME280;42713;42.676;23.352;2023-04-01T04:34:34;93670.22;;;11.74;55.13
56831;BME280;42713;42.676;23.352;2023-04-01T04:37:00;93678.09;;;11.74;55.29
56831;BME280;42713;42.676;23.352;2023-04-01T04:39:25;93679.13;;;11.73;55.05
56831;BME280;42713;42.676;23.352;2023-04-01T04:41:59;93675.75;;;11.73;54.88
56831;BME280;42713;42.676;23.352;2023-04-01T04:44:25;93671.78;;;11.75;54.71
56831;BME280;42713;42.676;23.352;2023-04-01T04:46:50;93668.41;;;11.75;54.50
56831;BME280;42713;42.676;23.352;2023-04-01T04:49:16;93654.19;;;11.76;54.96
56831;BME280;42713;42.676;23.352;2023-04-01T04:51:41;93654.72;;;11.78;55.12
56831;BME280;42713;42.676;23.352;2023-04-01T04:54:08;93657.16;;;11.69;54.38
56831;BME280;42713;42.676;23.352;2023-04-01T04:56:33;93652.44;;;11.66;53.71
56831;BME280;42713;42.676;23.352;2023-04-01T04:59:01;93642.03;;;11.56;54.12
56831;BME280;42713;42.676;23.352;2023-04-01T05:01:28;93645.19;;;11.52;54.25
56831;BME280;42713;42.676;23.352;2023-04-01T05:03:53;93641.75;;;11.57;55.01
56831;BME280;42713;42.676;23.352;2023-04-01T05:06:19;93650.13;;;11.59;54.69
56831;BME280;42713;42.676;23.352;2023-04-01T05:08:45;93650.44;;;11.52;54.62
56831;BME280;42713;42.676;23.352;2023-04-01T05:11:13;93644.19;;;11.48;53.61
56831;BME280;42713;42.676;23.352;2023-04-01T05:13:41;93630.97;;;11.29;54.16
56831;BME280;42713;42.676;23.352;2023-04-01T05:16:16;93634.31;;;11.35;54.62
56831;BME280;42713;42.676;23.352;2023-04-01T05:18:42;93624.59;;;11.41;55.29
56831;BME280;42713;42.676;23.352;2023-04-01T05:21:09;93626.38;;;11.45;54.51
56831;BME280;42713;42.676;23.352;2023-04-01T05:23:35;93618.53;;;11.45;53.93
56831;BME280;42713;42.676;23.352;2023-04-01T05:26:10;93604.31;;;11.51;53.83
56831;BME280;42713;42.676;23.352;2023-04-01T05:28:36;93607.44;;;11.53;54.67
56831;BME280;42713;42.676;23.352;2023-04-01T05:31:04;93603.25;;;11.52;53.73
56831;BME280;42713;42.676;23.352;2023-04-01T05:33:30;93599.31;;;11.55;53.59
56831;BME280;42713;42.676;23.352;2023-04-01T05:35:56;93605.56;;;11.59;54.41
56831;BME280;42713;42.676;23.352;2023-04-01T05:38:22;93614.47;;;11.58;53.53
56831;BME280;42713;42.676;23.352;2023-04-01T05:40:47;93613.41;;;11.64;54.87
56831;BME280;42713;42.676;23.352;2023-04-01T05:43:13;93614.69;;;11.67;53.98
56831;BME280;42713;42.676;23.352;2023-04-01T05:45:38;93622.34;;;11.58;54.66
56831;BME280;42713;42.676;23.352;2023-04-01T05:48:04;93621.03;;;11.61;53.36
56831;BME280;42713;42.676;23.352;2023-04-01T05:50:30;93606.81;;;11.67;52.64
56831;BME280;42713;42.676;23.352;2023-04-01T05:52:55;93603.66;;;11.70;53.16
56831;BME280;42713;42.676;23.352;2023-04-01T05:55:21;93600.97;;;11.75;53.08
56831;BME280;42713;42.676;23.352;2023-04-01T05:57:47;93595.69;;;11.80;53.61
56831;BME280;42713;42.676;23.352;2023-04-01T06:00:15;93595.34;;;11.87;52.86
56831;BME280;42713;42.676;23.352;2023-04-01T06:02:41;93599.19;;;11.95;52.46
56831;BME280;42713;42.676;23.352;2023-04-01T06:05:14;93593.09;;;12.05;52.77
56831;BME280;42713;42.676;23.352;2023-04-01T06:07:42;93585.91;;;12.16;53.28
56831;BME280;42713;42.676;23.352;2023-04-01T06:10:19;93599.41;;;12.28;52.70
56831;BME280;42713;42.676;23.352;2023-04-01T06:12:51;93593.81;;;12.35;50.58
56831;BME280;42713;42.676;23.352;2023-04-01T06:15:39;93594.19;;;12.47;51.65
56831;BME280;42713;42.676;23.352;2023-04-01T06:18:50;93593.84;;;12.54;50.22
56831;BME280;42713;42.676;23.352;2023-04-01T06:35:23;93581.44;;;12.79;49.81
56831;BME280;42713;42.676;23.352;2023-04-01T06:38:04;93586.13;;;12.82;50.23
56831;BME280;42713;42.676;23.352;2023-04-01T06:40:53;93579.31;;;12.81;50.56
56831;BME280;42713;42.676;23.352;2023-04-01T06:46:36;93569.88;;;12.80;51.32
56831;BME280;42713;42.676;23.352;2023-04-01T06:54:36;93563.03;;;12.79;52.91
56831;BME280;42713;42.676;23.352;2023-04-01T06:59:50;93540.09;;;12.84;52.63
56831;BME280;42713;42.676;23.352;2023-04-01T07:02:31;93533.00;;;12.85;53.01
56831;BME280;42713;42.676;23.352;2023-04-01T07:05:00;93535.56;;;12.90;53.19
56831;BME280;42713;42.676;23.352;2023-04-01T07:07:49;93543.66;;;12.93;52.61
56831;BME280;42713;42.676;23.352;2023-04-01T07:10:20;93544.25;;;12.90;52.65
56831;BME280;42713;42.676;23.352;2023-04-01T07:12:54;93543.88;;;12.78;52.45
56831;BME280;42713;42.676;23.352;2023-04-01T07:15:36;93536.41;;;12.85;52.97
56831;BME280;42713;42.676;23.352;2023-04-01T07:18:07;93538.13;;;12.95;53.11
56831;BME280;42713;42.676;23.352;2023-04-01T07:20:37;93515.94;;;13.01;52.66
56831;BME280;42713;42.676;23.352;2023-04-01T07:23:23;93540.50;;;13.11;53.06
56831;BME280;42713;42.676;23.352;2023-04-01T07:26:00;93543.19;;;12.91;52.89
56831;BME280;42713;42.676;23.352;2023-04-01T07:28:30;93536.84;;;12.92;53.10
56831;BME280;42713;42.676;23.352;2023-04-01T07:31:12;93537.47;;;13.03;53.21
56831;BME280;42713;42.676;23.352;2023-04-01T07:36:51;93536.50;;;12.80;54.67
56831;BME280;42713;42.676;23.352;2023-04-01T07:39:30;93544.38;;;12.80;54.65
56831;BME280;42713;42.676;23.352;2023-04-01T07:42:22;93534.53;;;12.72;55.32
56831;BME280;42713;42.676;23.352;2023-04-01T07:47:58;93529.47;;;12.56;56.55
56831;BME280;42713;42.676;23.352;2023-04-01T07:50:43;93531.53;;;12.59;55.71
56831;BME280;42713;42.676;23.352;2023-04-01T07:53:38;93529.53;;;12.70;55.72
56831;BME280;42713;42.676;23.352;2023-04-01T08:22:35;93485.88;;;13.41;51.75
56831;BME280;42713;42.676;23.352;2023-04-01T08:25:05;93475.38;;;13.41;52.44
56831;BME280;42713;42.676;23.352;2023-04-01T08:34:05;93459.91;;;13.81;51.47
56831;BME280;42713;42.676;23.352;2023-04-01T08:36:37;93443.72;;;13.88;51.13
56831;BME280;42713;42.676;23.352;2023-04-01T08:39:09;93425.00;;;13.89;51.32
56831;BME280;42713;42.676;23.352;2023-04-01T08:55:56;93397.00;;;14.07;50.27
56831;BME280;42713;42.676;23.352;2023-04-01T09:09:49;93416.84;;;14.50;47.20
56831;BME280;42713;42.676;23.352;2023-04-01T09:20:19;93402.50;;;15.02;46.29
56831;BME280;42713;42.676;23.352;2023-04-01T09:31:26;93383.03;;;15.29;42.54
56831;BME280;42713;42.676;23.352;2023-04-01T09:34:15;93386.03;;;15.36;41.89
56831;BME280;42713;42.676;23.352;2023-04-01T09:36:57;93376.13;;;15.42;42.34
56831;BME280;42713;42.676;23.352;2023-04-01T09:45:08;93369.06;;;15.69;43.14
56831;BME280;42713;42.676;23.352;2023-04-01T09:50:31;93348.47;;;15.89;42.65
56831;BME280;42713;42.676;23.352;2023-04-01T09:58:29;93338.22;;;16.13;41.19
56831;BME280;42713;42.676;23.352;2023-04-01T10:06:34;93320.97;;;16.33;42.25
56831;BME280;42713;42.676;23.352;2023-04-01T10:12:05;93327.97;;;16.38;42.18
56831;BME280;42713;42.676;23.352;2023-04-01T10:23:40;93316.44;;;16.52;42.55
56831;BME280;42713;42.676;23.352;2023-04-01T10:26:52;93311.00;;;16.57;42.52
56831;BME280;42713;42.676;23.352;2023-04-01T11:06:57;93249.13;;;16.49;43.27
56831;BME280;42713;42.676;23.352;2023-04-01T11:10:16;93243.84;;;16.49;43.18
56831;BME280;42713;42.676;23.352;2023-04-01T11:21:09;93227.69;;;16.42;43.36
56831;BME280;42713;42.676;23.352;2023-04-01T11:30:10;93279.97;;;16.18;40.14
56831;BME280;42713;42.676;23.352;2023-04-01T11:35:36;93321.28;;;15.88;42.52
56831;BME280;42713;42.676;23.352;2023-04-01T11:39:08;93358.34;;;15.74;45.00
56831;BME280;42713;42.676;23.352;2023-04-01T11:41:25;93335.50;;;15.61;44.41
56831;BME280;42713;42.676;23.352;2023-04-01T11:49:47;93423.53;;;14.70;53.75
56831;BME280;42713;42.676;23.352;2023-04-01T11:52:53;93471.75;;;14.20;59.62
56831;BME280;42713;42.676;23.352;2023-04-01T11:55:23;93505.44;;;13.34;63.58
56831;BME280;42713;42.676;23.352;2023-04-01T12:03:27;93520.09;;;12.07;76.13
56831;BME280;42713;42.676;23.352;2023-04-01T12:06:08;93539.75;;;11.85;77.89
56831;BME280;42713;42.676;23.352;2023-04-01T12:08:55;93515.00;;;11.67;76.67
56831;BME280;42713;42.676;23.352;2023-04-01T12:11:46;93489.50;;;11.48;79.46
56831;BME280;42713;42.676;23.352;2023-04-01T12:17:29;93489.50;;;11.19;82.49
56831;BME280;42713;42.676;23.352;2023-04-01T12:20:10;93497.97;;;11.11;84.02
56831;BME280;42713;42.676;23.352;2023-04-01T12:22:49;93504.31;;;11.34;85.89
56831;BME280;42713;42.676;23.352;2023-04-01T12:36:18;93500.25;;;11.95;85.41
56831;BME280;42713;42.676;23.352;2023-04-01T12:42:17;93524.19;;;11.40;84.23
56831;BME280;42713;42.676;23.352;2023-04-01T13:03:36;93490.34;;;11.44;89.41
56831;BME280;42713;42.676;23.352;2023-04-01T13:06:31;93477.34;;;11.58;89.28
56831;BME280;42713;42.676;23.352;2023-04-01T13:12:27;93467.28;;;11.89;89.19
56831;BME280;42713;42.676;23.352;2023-04-01T13:15:06;93433.78;;;12.05;89.57
56831;BME280;42713;42.676;23.352;2023-04-01T13:28:57;93412.56;;;14.18;88.22
56831;BME280;42713;42.676;23.352;2023-04-01T13:31:33;93415.09;;;14.82;83.89
56831;BME280;42713;42.676;23.352;2023-04-01T13:37:13;93394.50;;;15.56;75.84
56831;BME280;42713;42.676;23.352;2023-04-01T13:42:21;93387.66;;;16.39;73.22
56831;BME280;42713;42.676;23.352;2023-04-01T13:45:14;93380.00;;;16.73;71.12
56831;BME280;42713;42.676;23.352;2023-04-01T13:47:53;93369.88;;;16.84;65.70
56831;BME280;42713;42.676;23.352;2023-04-01T13:56:11;93359.03;;;17.63;67.35
56831;BME280;42713;42.676;23.352;2023-04-01T14:11:13;93324.34;;;20.63;54.42
56831;BME280;42713;42.676;23.352;2023-04-01T14:20:14;93323.81;;;21.02;50.20
56831;BME280;42713;42.676;23.352;2023-04-01T14:36:43;93297.88;;;18.19;54.55
56831;BME280;42713;42.676;23.352;2023-04-01T14:42:41;93290.94;;;19.68;52.63
56831;BME280;42713;42.676;23.352;2023-04-01T14:45:52;93301.06;;;20.60;49.95
56831;BME280;42713;42.676;23.352;2023-04-01T14:48:32;93299.41;;;21.32;47.92
56831;BME280;42713;42.676;23.352;2023-04-01T14:51:09;93299.91;;;21.70;46.60
56831;BME280;42713;42.676;23.352;2023-04-01T14:53:38;93294.00;;;22.16;45.32
56831;BME280;42713;42.676;23.352;2023-04-01T15:04:25;93286.47;;;23.27;42.43
56831;BME280;42713;42.676;23.352;2023-04-01T15:07:21;93298.00;;;22.88;42.04
56831;BME280;42713;42.676;23.352;2023-04-01T15:12:35;93309.38;;;22.62;41.66
56831;BME280;42713;42.676;23.352;2023-04-01T15:17:53;93308.09;;;21.45;43.82
56831;BME280;42713;42.676;23.352;2023-04-01T15:20:33;93322.28;;;20.73;45.00
56831;BME280;42713;42.676;23.352;2023-04-01T15:23:24;93319.56;;;20.00;47.36
56831;BME280;42713;42.676;23.352;2023-04-01T15:29:03;93309.56;;;18.73;49.46
56831;BME280;42713;42.676;23.352;2023-04-01T15:31:58;93318.19;;;18.15;51.52
56831;BME280;42713;42.676;23.352;2023-04-01T15:34:34;93318.16;;;17.72;52.23
56831;BME280;42713;42.676;23.352;2023-04-01T15:37:33;93306.09;;;17.33;54.10
56831;BME280;42713;42.676;23.352;2023-04-01T15:45:38;93327.03;;;16.43;57.10
56831;BME280;42713;42.676;23.352;2023-04-01T15:59:06;93554.31;;;11.43;65.38
56831;BME280;42713;42.676;23.352;2023-04-01T16:07:21;93565.97;;;10.41;74.50
56831;BME280;42713;42.676;23.352;2023-04-01T16:15:21;93626.31;;;9.12;82.72
56831;BME280;42713;42.676;23.352;2023-04-01T16:21:07;93591.25;;;8.72;86.79
56831;BME280;42713;42.676;23.352;2023-04-01T16:23:58;93599.38;;;8.76;87.87
56831;BME280;42713;42.676;23.352;2023-04-01T16:26:34;93606.16;;;8.87;88.69
56831;BME280;42713;42.676;23.352;2023-04-01T16:29:16;93601.50;;;9.05;84.10
56831;BME280;42713;42.676;23.352;2023-04-01T16:31:59;93621.38;;;9.06;83.49
56831;BME280;42713;42.676;23.352;2023-04-01T16:34:37;93617.97;;;9.00;85.31
56831;BME280;42713;42.676;23.352;2023-04-01T16:37:10;93626.59;;;9.06;85.13
56831;BME280;42713;42.676;23.352;2023-04-01T16:39:50;93659.00;;;9.15;83.99
56831;BME280;42713;42.676;23.352;2023-04-01T16:42:47;93640.66;;;8.99;82.76
56831;BME280;42713;42.676;23.352;2023-04-01T16:45:36;93683.50;;;8.98;83.88
56831;BME280;42713;42.676;23.352;2023-04-01T16:48:15;93647.94;;;8.87;82.02
56831;BME280;42713;42.676;23.352;2023-04-01T16:58:10;93633.28;;;8.65;80.11
56831;BME280;42713;42.676;23.352;2023-04-01T17:00:49;93632.78;;;8.74;79.58
56831;BME280;42713;42.676;23.352;2023-04-01T17:03:26;93646.88;;;8.72;78.41
56831;BME280;42713;42.676;23.352;2023-04-01T17:14:12;93642.09;;;8.49;79.06
56831;BME280;42713;42.676;23.352;2023-04-01T17:19:56;93669.38;;;8.31;80.03
56831;BME280;42713;42.676;23.352;2023-04-01T17:39:22;93677.44;;;8.24;78.27
56831;BME280;42713;42.676;23.352;2023-04-01T17:42:00;93666.47;;;8.22;78.06
56831;BME280;42713;42.676;23.352;2023-04-01T17:44:54;93660.19;;;8.18;76.83
56831;BME280;42713;42.676;23.352;2023-04-01T17:47:41;93675.53;;;8.14;77.72
56831;BME280;42713;42.676;23.352;2023-04-01T17:50:16;93692.81;;;8.20;76.97
56831;BME280;42713;42.676;23.352;2023-04-01T17:55:59;93701.13;;;8.17;78.58
56831;BME280;42713;42.676;23.352;2023-04-01T17:58:29;93725.09;;;8.14;78.48
56831;BME280;42713;42.676;23.352;2023-04-01T18:10:12;93737.69;;;7.85;78.06
56831;BME280;42713;42.676;23.352;2023-04-01T18:21:04;93753.69;;;7.66;78.74
56831;BME280;42713;42.676;23.352;2023-04-01T18:23:53;93765.19;;;7.70;78.75
56831;BME280;42713;42.676;23.352;2023-04-01T18:26:36;93758.53;;;7.85;78.67
56831;BME280;42713;42.676;23.352;2023-04-01T18:29:27;93758.28;;;7.86;78.24
56831;BME280;42713;42.676;23.352;2023-04-01T18:34:53;93747.09;;;7.91;77.17
56831;BME280;42713;42.676;23.352;2023-04-01T18:37:39;93755.44;;;7.88;76.78
56831;BME280;42713;42.676;23.352;2023-04-01T18:40:17;93750.81;;;7.95;76.79
56831;BME280;42713;42.676;23.352;2023-04-01T18:45:50;93762.47;;;7.87;77.69
56831;BME280;42713;42.676;23.352;2023-04-01T18:48:37;93753.47;;;8.05;83.19
56831;BME280;42713;42.676;23.352;2023-04-01T18:54:41;93769.00;;;8.22;75.96
56831;BME280;42713;42.676;23.352;2023-04-01T18:57:18;93761.47;;;8.26;75.73
56831;BME280;42713;42.676;23.352;2023-04-01T19:02:36;93783.84;;;8.22;74.60
56831;BME280;42713;42.676;23.352;2023-04-01T19:07:48;93790.63;;;8.23;74.49
56831;BME280;42713;42.676;23.352;2023-04-01T19:10:43;93801.34;;;8.21;74.29
56831;BME280;42713;42.676;23.352;2023-04-01T19:19:40;93810.97;;;8.21;73.67
56831;BME280;42713;42.676;23.352;2023-04-01T19:22:23;93803.94;;;8.21;73.03
56831;BME280;42713;42.676;23.352;2023-04-01T19:27:42;93807.31;;;8.17;72.65
56831;BME280;42713;42.676;23.352;2023-04-01T19:33:15;93806.56;;;8.21;70.65
56831;BME280;42713;42.676;23.352;2023-04-01T19:41:39;93836.19;;;8.10;70.65
56831;BME280;42713;42.676;23.352;2023-04-01T19:46:45;93858.56;;;8.06;70.00
56831;BME280;42713;42.676;23.352;2023-04-01T19:51:55;93849.44;;;8.03;70.01
56831;BME280;42713;42.676;23.352;2023-04-01T19:54:37;93840.56;;;8.04;69.64
56831;BME280;42713;42.676;23.352;2023-04-01T19:57:19;93865.06;;;8.03;69.85
56831;BME280;42713;42.676;23.352;2023-04-01T20:00:02;93854.91;;;8.02;69.97
56831;BME280;42713;42.676;23.352;2023-04-01T20:16:06;93842.25;;;8.16;68.31
56831;BME280;42713;42.676;23.352;2023-04-01T20:19:18;93837.59;;;8.23;69.30
56831;BME280;42713;42.676;23.352;2023-04-01T20:21:28;93847.78;;;8.24;68.47
56831;BME280;42713;42.676;23.352;2023-04-01T20:24:00;93844.19;;;8.31;68.45
56831;BME280;42713;42.676;23.352;2023-04-01T20:26:33;93851.56;;;8.39;68.41
56831;BME280;42713;42.676;23.352;2023-04-01T20:31:43;93851.28;;;8.40;66.80
56831;BME280;42713;42.676;23.352;2023-04-01T20:34:35;93870.66;;;8.45;66.48
56831;BME280;42713;42.676;23.352;2023-04-01T20:40:19;93854.84;;;8.29;66.63
56831;BME280;42713;42.676;23.352;2023-04-01T20:46:06;93858.75;;;8.26;66.63
56831;BME280;42713;42.676;23.352;2023-04-01T21:02:16;93858.56;;;8.33;65.26
56831;BME280;42713;42.676;23.352;2023-04-01T21:07:44;93862.97;;;8.33;64.13
56831;BME280;42713;42.676;23.352;2023-04-01T21:18:47;93881.47;;;8.26;64.29
56831;BME280;42713;42.676;23.352;2023-04-01T21:21:46;93879.06;;;8.24;63.68
56831;BME280;42713;42.676;23.352;2023-04-01T21:40:38;93880.06;;;7.91;64.82
56831;BME280;42713;42.676;23.352;2023-04-01T21:43:24;93868.38;;;7.93;65.27
56831;BME280;42713;42.676;23.352;2023-04-01T21:46:37;93876.50;;;7.97;64.22
56831;BME280;42713;42.676;23.352;2023-04-01T22:00:00;93869.31;;;7.82;65.51
56831;BME280;42713;42.676;23.352;2023-04-01T22:06:08;93882.53;;;7.75;65.39
56831;BME280;42713;42.676;23.352;2023-04-01T22:08:35;93881.56;;;7.82;65.53
56831;BME280;42713;42.676;23.352;2023-04-01T22:13:50;93877.06;;;7.77;65.57
56831;BME280;42713;42.676;23.352;2023-04-01T22:25:41;93866.31;;;7.68;66.02
56831;BME280;42713;42.676;23.352;2023-04-01T22:28:11;93867.03;;;7.63;65.97
56831;BME280;42713;42.676;23.352;2023-04-01T22:30:56;93863.16;;;7.66;66.13
56831;BME280;42713;42.676;23.352;2023-04-01T22:37:09;93871.72;;;7.61;65.56
56831;BME280;42713;42.676;23.352;2023-04-01T22:39:43;93871.41;;;7.58;64.78
56831;BME280;42713;42.676;23.352;2023-04-01T22:45:05;93867.78;;;7.59;64.87
56831;BME280;42713;42.676;23.352;2023-04-01T22:50:57;93878.78;;;7.66;64.23
56831;BME280;42713;42.676;23.352;2023-04-01T22:53:37;93892.91;;;7.70;63.20